sensor_id;sensor_type;location;lat;lon;timestamp;pressure;altitude;pressure_sealevel;temperature;humidity
62436;BME280;48480;50.252;18.848;2023-06-24T00:00:37;98823.27;;;20.68;62.45
62436;BME280;48480;50.252;18.848;2023-06-24T00:03:21;98819.36;;;20.67;62.44
62436;BME280;48480;50.252;18.848;2023-06-24T00:06:05;98819.04;;;20.66;62.72
62436;BME280;48480;50.252;18.848;2023-06-24T00:08:49;98822.94;;;20.65;62.60
62436;BME280;48480;50.252;18.848;2023-06-24T00:11:33;98818.55;;;20.62;62.57
62436;BME280;48480;50.252;18.848;2023-06-24T00:14:17;98821.37;;;20.64;62.70
62436;BME280;48480;50.252;18.848;2023-06-24T00:17:01;98821.65;;;20.68;62.51
62436;BME280;48480;50.252;18.848;2023-06-24T00:19:44;98819.80;;;20.71;62.47
62436;BME280;48480;50.252;18.848;2023-06-24T00:22:28;98816.17;;;20.75;62.54
62436;BME280;48480;50.252;18.848;2023-06-24T00:25:12;98813.86;;;20.76;62.50
62436;BME280;48480;50.252;18.848;2023-06-24T00:27:57;98811.37;;;20.77;62.69
62436;BME280;48480;50.252;18.848;2023-06-24T00:30:41;98808.97;;;20.78;62.84
62436;BME280;48480;50.252;18.848;2023-06-24T00:33:25;98801.83;;;20.79;62.68
62436;BME280;48480;50.252;18.848;2023-06-24T00:36:09;98802.85;;;20.81;62.53
62436;BME280;48480;50.252;18.848;2023-06-24T00:38:55;98806.27;;;20.82;62.61
62436;BME280;48480;50.252;18.848;2023-06-24T00:41:40;98811.58;;;20.82;62.73
62436;BME280;48480;50.252;18.848;2023-06-24T00:44:24;98813.83;;;20.80;62.88
62436;BME280;48480;50.252;18.848;2023-06-24T00:47:08;98813.95;;;20.78;62.89
62436;BME280;48480;50.252;18.848;2023-06-24T00:49:52;98815.34;;;20.77;63.02
62436;BME280;48480;50.252;18.848;2023-06-24T00:52:36;98813.78;;;20.77;63.09
62436;BME280;48480;50.252;18.848;2023-06-24T00:55:22;98814.92;;;20.74;63.26
62436;BME280;48480;50.252;18.848;2023-06-24T00:58:06;98820.04;;;20.72;63.43
62436;BME280;48480;50.252;18.848;2023-06-24T01:00:50;98819.33;;;20.70;63.43
62436;BME280;48480;50.252;18.848;2023-06-24T01:03:40;98820.45;;;20.64;63.73
62436;BME280;48480;50.252;18.848;2023-06-24T01:06:25;98822.92;;;20.57;63.88
62436;BME280;48480;50.252;18.848;2023-06-24T01:09:12;98830.39;;;20.51;64.19
62436;BME280;48480;50.252;18.848;2023-06-24T01:11:56;98831.53;;;20.49;64.39
62436;BME280;48480;50.252;18.848;2023-06-24T01:14:40;98828.02;;;20.48;64.67
62436;BME280;48480;50.252;18.848;2023-06-24T01:17:33;98823.14;;;20.44;64.70
62436;BME280;48480;50.252;18.848;2023-06-24T01:26:39;98825.63;;;20.23;65.37
62436;BME280;48480;50.252;18.848;2023-06-24T01:33:00;98830.15;;;20.05;65.83
62436;BME280;48480;50.252;18.848;2023-06-24T01:35:47;98834.11;;;20.04;66.14
62436;BME280;48480;50.252;18.848;2023-06-24T01:38:43;98834.31;;;20.07;66.05
62436;BME280;48480;50.252;18.848;2023-06-24T01:41:34;98832.94;;;20.09;66.06
62436;BME280;48480;50.252;18.848;2023-06-24T01:44:20;98835.61;;;20.13;66.16
62436;BME280;48480;50.252;18.848;2023-06-24T01:47:05;98836.62;;;20.12;66.12
62436;BME280;48480;50.252;18.848;2023-06-24T01:49:53;98836.98;;;20.11;66.36
62436;BME280;48480;50.252;18.848;2023-06-24T01:52:41;98835.33;;;20.08;66.43
62436;BME280;48480;50.252;18.848;2023-06-24T01:55:28;98833.64;;;20.05;66.67
62436;BME280;48480;50.252;18.848;2023-06-24T01:58:13;98831.00;;;20.04;66.80
62436;BME280;48480;50.252;18.848;2023-06-24T02:01:00;98837.25;;;20.06;67.03
62436;BME280;48480;50.252;18.848;2023-06-24T02:03:45;98835.64;;;20.07;66.87
62436;BME280;48480;50.252;18.848;2023-06-24T02:06:31;98839.59;;;20.07;66.85
62436;BME280;48480;50.252;18.848;2023-06-24T02:09:17;98837.05;;;20.09;66.89
62436;BME280;48480;50.252;18.848;2023-06-24T02:12:04;98834.54;;;20.07;66.91
62436;BME280;48480;50.252;18.848;2023-06-24T02:14:49;98831.52;;;20.02;67.13
62436;BME280;48480;50.252;18.848;2023-06-24T02:17:35;98826.81;;;19.93;67.46
62436;BME280;48480;50.252;18.848;2023-06-24T02:20:20;98827.39;;;19.84;67.84
62436;BME280;48480;50.252;18.848;2023-06-24T02:23:07;98825.27;;;19.77;68.26
62436;BME280;48480;50.252;18.848;2023-06-24T02:25:53;98824.16;;;19.75;68.42
62436;BME280;48480;50.252;18.848;2023-06-24T02:28:38;98824.73;;;19.72;68.56
62436;BME280;48480;50.252;18.848;2023-06-24T02:31:23;98824.09;;;19.72;68.74
62436;BME280;48480;50.252;18.848;2023-06-24T02:34:08;98825.77;;;19.71;68.83
62436;BME280;48480;50.252;18.848;2023-06-24T02:36:52;98823.23;;;19.71;68.97
62436;BME280;48480;50.252;18.848;2023-06-24T02:39:36;98823.84;;;19.71;69.14
62436;BME280;48480;50.252;18.848;2023-06-24T02:42:23;98826.21;;;19.72;69.43
62436;BME280;48480;50.252;18.848;2023-06-24T02:45:07;98826.34;;;19.71;69.48
62436;BME280;48480;50.252;18.848;2023-06-24T02:47:52;98825.89;;;19.72;69.60
62436;BME280;48480;50.252;18.848;2023-06-24T02:50:37;98829.98;;;19.71;69.87
62436;BME280;48480;50.252;18.848;2023-06-24T02:53:22;98834.86;;;19.69;70.18
62436;BME280;48480;50.252;18.848;2023-06-24T02:56:08;98835.56;;;19.70;70.29
62436;BME280;48480;50.252;18.848;2023-06-24T02:58:52;98833.80;;;19.71;70.47
62436;BME280;48480;50.252;18.848;2023-06-24T03:01:38;98831.93;;;19.75;70.59
62436;BME280;48480;50.252;18.848;2023-06-24T03:04:24;98833.44;;;19.77;70.68
62436;BME280;48480;50.252;18.848;2023-06-24T03:07:09;98831.45;;;19.74;70.82
62436;BME280;48480;50.252;18.848;2023-06-24T03:09:54;98834.02;;;19.74;71.09
62436;BME280;48480;50.252;18.848;2023-06-24T03:12:38;98832.06;;;19.73;71.37
62436;BME280;48480;50.252;18.848;2023-06-24T03:15:22;98833.09;;;19.71;71.71
62436;BME280;48480;50.252;18.848;2023-06-24T03:18:06;98831.06;;;19.65;71.93
62436;BME280;48480;50.252;18.848;2023-06-24T03:20:50;98830.11;;;19.64;72.38
62436;BME280;48480;50.252;18.848;2023-06-24T03:23:35;98832.17;;;19.67;72.77
62436;BME280;48480;50.252;18.848;2023-06-24T03:26:20;98834.33;;;19.70;72.85
62436;BME280;48480;50.252;18.848;2023-06-24T03:29:04;98838.30;;;19.71;73.09
62436;BME280;48480;50.252;18.848;2023-06-24T03:31:48;98843.79;;;19.73;73.19
62436;BME280;48480;50.252;18.848;2023-06-24T03:34:32;98843.87;;;19.73;73.41
62436;BME280;48480;50.252;18.848;2023-06-24T03:37:16;98845.53;;;19.75;73.52
62436;BME280;48480;50.252;18.848;2023-06-24T03:40:00;98847.22;;;19.78;73.81
62436;BME280;48480;50.252;18.848;2023-06-24T03:42:44;98848.31;;;19.83;73.94
62436;BME280;48480;50.252;18.848;2023-06-24T03:45:30;98848.35;;;19.88;74.07
62436;BME280;48480;50.252;18.848;2023-06-24T03:48:14;98850.88;;;19.89;74.29
62436;BME280;48480;50.252;18.848;2023-06-24T03:50:57;98852.52;;;19.90;74.31
62436;BME280;48480;50.252;18.848;2023-06-24T03:53:42;98861.52;;;19.94;74.52
62436;BME280;48480;50.252;18.848;2023-06-24T03:56:29;98864.52;;;19.97;74.62
62436;BME280;48480;50.252;18.848;2023-06-24T03:59:13;98861.35;;;19.93;74.81
62436;BME280;48480;50.252;18.848;2023-06-24T04:01:57;98873.20;;;20.01;74.96
62436;BME280;48480;50.252;18.848;2023-06-24T04:04:41;98877.80;;;20.02;75.21
62436;BME280;48480;50.252;18.848;2023-06-24T04:07:26;98883.84;;;20.04;75.77
62436;BME280;48480;50.252;18.848;2023-06-24T04:10:13;98889.09;;;20.03;76.32
62436;BME280;48480;50.252;18.848;2023-06-24T04:12:57;98893.78;;;19.98;76.77
62436;BME280;48480;50.252;18.848;2023-06-24T04:15:41;98895.45;;;19.97;77.10
62436;BME280;48480;50.252;18.848;2023-06-24T04:18:25;98895.06;;;19.97;77.21
62436;BME280;48480;50.252;18.848;2023-06-24T04:21:09;98896.48;;;19.97;77.50
62436;BME280;48480;50.252;18.848;2023-06-24T04:23:53;98896.25;;;19.98;77.46
62436;BME280;48480;50.252;18.848;2023-06-24T04:26:36;98897.20;;;19.99;77.44
62436;BME280;48480;50.252;18.848;2023-06-24T04:29:21;98901.44;;;20.00;77.71
62436;BME280;48480;50.252;18.848;2023-06-24T04:32:05;98898.31;;;20.01;77.92
62436;BME280;48480;50.252;18.848;2023-06-24T04:34:51;98899.20;;;19.98;78.21
62436;BME280;48480;50.252;18.848;2023-06-24T04:37:35;98907.90;;;19.96;78.77
62436;BME280;48480;50.252;18.848;2023-06-24T04:40:20;98914.65;;;19.95;79.40
62436;BME280;48480;50.252;18.848;2023-06-24T04:43:06;98915.84;;;19.91;79.78
62436;BME280;48480;50.252;18.848;2023-06-24T04:45:50;98920.12;;;19.86;79.96
62436;BME280;48480;50.252;18.848;2023-06-24T04:48:35;98920.65;;;19.79;80.49
62436;BME280;48480;50.252;18.848;2023-06-24T04:51:19;98923.48;;;19.77;80.69
62436;BME280;48480;50.252;18.848;2023-06-24T04:54:04;98929.02;;;19.74;80.98
62436;BME280;48480;50.252;18.848;2023-06-24T04:56:49;98934.40;;;19.74;81.37
62436;BME280;48480;50.252;18.848;2023-06-24T04:59:36;98932.69;;;19.74;81.50
62436;BME280;48480;50.252;18.848;2023-06-24T05:02:22;98932.26;;;19.73;81.55
62436;BME280;48480;50.252;18.848;2023-06-24T05:05:07;98933.50;;;19.67;81.53
62436;BME280;48480;50.252;18.848;2023-06-24T05:07:51;98939.55;;;19.61;81.81
62436;BME280;48480;50.252;18.848;2023-06-24T05:10:35;98940.86;;;19.57;82.09
62436;BME280;48480;50.252;18.848;2023-06-24T05:13:18;98943.73;;;19.56;82.71
62436;BME280;48480;50.252;18.848;2023-06-24T05:16:02;98946.09;;;19.54;82.89
62436;BME280;48480;50.252;18.848;2023-06-24T05:18:48;98942.84;;;19.49;82.97
62436;BME280;48480;50.252;18.848;2023-06-24T05:21:32;98943.80;;;19.43;83.12
62436;BME280;48480;50.252;18.848;2023-06-24T05:24:16;98945.91;;;19.33;83.52
62436;BME280;48480;50.252;18.848;2023-06-24T05:27:04;98948.59;;;19.27;83.79
62436;BME280;48480;50.252;18.848;2023-06-24T05:29:51;98953.45;;;19.21;83.85
62436;BME280;48480;50.252;18.848;2023-06-24T05:32:35;98957.07;;;19.15;83.80
62436;BME280;48480;50.252;18.848;2023-06-24T05:35:19;98963.84;;;19.12;84.19
62436;BME280;48480;50.252;18.848;2023-06-24T05:38:05;98968.36;;;19.11;84.22
62436;BME280;48480;50.252;18.848;2023-06-24T05:40:48;98968.95;;;19.06;83.79
62436;BME280;48480;50.252;18.848;2023-06-24T05:43:32;98968.33;;;18.98;83.35
62436;BME280;48480;50.252;18.848;2023-06-24T05:46:17;98969.80;;;18.94;83.41
62436;BME280;48480;50.252;18.848;2023-06-24T05:49:01;98972.95;;;18.88;83.53
62436;BME280;48480;50.252;18.848;2023-06-24T05:51:46;98972.40;;;18.88;83.96
62436;BME280;48480;50.252;18.848;2023-06-24T05:54:30;98976.84;;;18.92;84.26
62436;BME280;48480;50.252;18.848;2023-06-24T05:57:15;98978.20;;;18.95;84.15
62436;BME280;48480;50.252;18.848;2023-06-24T05:59:59;98984.59;;;18.96;84.33
62436;BME280;48480;50.252;18.848;2023-06-24T06:02:43;98991.10;;;19.02;84.55
62436;BME280;48480;50.252;18.848;2023-06-24T06:05:27;98995.70;;;19.08;83.75
62436;BME280;48480;50.252;18.848;2023-06-24T06:08:11;98996.15;;;19.11;83.69
62436;BME280;48480;50.252;18.848;2023-06-24T06:10:55;98998.67;;;19.17;84.17
62436;BME280;48480;50.252;18.848;2023-06-24T06:13:39;98994.94;;;19.25;84.25
62436;BME280;48480;50.252;18.848;2023-06-24T06:16:24;98995.23;;;19.37;84.12
62436;BME280;48480;50.252;18.848;2023-06-24T06:19:09;99000.02;;;19.49;83.43
62436;BME280;48480;50.252;18.848;2023-06-24T06:21:53;99001.66;;;19.54;82.46
62436;BME280;48480;50.252;18.848;2023-06-24T06:24:37;99004.59;;;19.56;82.24
62436;BME280;48480;50.252;18.848;2023-06-24T06:27:21;99011.20;;;19.60;82.22
62436;BME280;48480;50.252;18.848;2023-06-24T06:30:05;99013.33;;;19.62;82.15
62436;BME280;48480;50.252;18.848;2023-06-24T06:32:50;99013.73;;;19.59;82.05
62436;BME280;48480;50.252;18.848;2023-06-24T06:35:35;99019.77;;;19.53;81.70
62436;BME280;48480;50.252;18.848;2023-06-24T06:38:20;99024.15;;;19.50;82.06
62436;BME280;48480;50.252;18.848;2023-06-24T06:41:04;99021.05;;;19.55;82.07
62436;BME280;48480;50.252;18.848;2023-06-24T06:43:50;99022.02;;;19.56;81.24
62436;BME280;48480;50.252;18.848;2023-06-24T06:46:34;99026.88;;;19.59;81.09
62436;BME280;48480;50.252;18.848;2023-06-24T06:49:19;99025.13;;;19.61;80.10
62436;BME280;48480;50.252;18.848;2023-06-24T06:52:05;99026.48;;;19.67;80.28
62436;BME280;48480;50.252;18.848;2023-06-24T06:54:49;99031.19;;;19.72;79.87
62436;BME280;48480;50.252;18.848;2023-06-24T06:57:33;99032.42;;;19.72;79.35
62436;BME280;48480;50.252;18.848;2023-06-24T07:00:17;99034.00;;;19.78;78.78
62436;BME280;48480;50.252;18.848;2023-06-24T07:03:03;99040.70;;;19.79;78.41
62436;BME280;48480;50.252;18.848;2023-06-24T07:05:48;99042.40;;;19.78;78.29
62436;BME280;48480;50.252;18.848;2023-06-24T07:08:34;99044.45;;;19.80;78.25
62436;BME280;48480;50.252;18.848;2023-06-24T07:11:19;99051.36;;;19.83;77.73
62436;BME280;48480;50.252;18.848;2023-06-24T07:14:04;99053.05;;;19.87;77.23
62436;BME280;48480;50.252;18.848;2023-06-24T07:16:48;99054.26;;;19.85;76.91
62436;BME280;48480;50.252;18.848;2023-06-24T07:19:33;99056.67;;;19.84;76.96
62436;BME280;48480;50.252;18.848;2023-06-24T07:22:17;99058.40;;;19.85;76.49
62436;BME280;48480;50.252;18.848;2023-06-24T07:25:01;99062.61;;;19.82;76.56
62436;BME280;48480;50.252;18.848;2023-06-24T07:27:46;99061.52;;;19.81;76.68
62436;BME280;48480;50.252;18.848;2023-06-24T07:30:31;99064.64;;;19.82;76.62
62436;BME280;48480;50.252;18.848;2023-06-24T07:33:17;99066.09;;;19.80;76.06
62436;BME280;48480;50.252;18.848;2023-06-24T07:36:01;99072.95;;;19.77;76.20
62436;BME280;48480;50.252;18.848;2023-06-24T07:38:45;99075.35;;;19.81;76.60
62436;BME280;48480;50.252;18.848;2023-06-24T07:41:32;99078.15;;;19.81;75.87
62436;BME280;48480;50.252;18.848;2023-06-24T07:44:17;99081.31;;;19.75;75.56
62436;BME280;48480;50.252;18.848;2023-06-24T07:47:03;99088.40;;;19.69;75.18
62436;BME280;48480;50.252;18.848;2023-06-24T07:49:47;99086.67;;;19.60;75.77
62436;BME280;48480;50.252;18.848;2023-06-24T07:52:34;99089.58;;;19.57;76.06
62436;BME280;48480;50.252;18.848;2023-06-24T07:55:18;99093.26;;;19.58;76.47
62436;BME280;48480;50.252;18.848;2023-06-24T07:58:02;99096.66;;;19.65;76.38
62436;BME280;48480;50.252;18.848;2023-06-24T08:00:47;99098.34;;;19.71;76.15
62436;BME280;48480;50.252;18.848;2023-06-24T08:03:33;99099.52;;;19.76;76.17
62436;BME280;48480;50.252;18.848;2023-06-24T08:06:18;99104.54;;;19.82;76.33
62436;BME280;48480;50.252;18.848;2023-06-24T08:09:03;99108.17;;;19.90;76.48
62436;BME280;48480;50.252;18.848;2023-06-24T08:11:47;99109.65;;;19.99;76.56
62436;BME280;48480;50.252;18.848;2023-06-24T08:14:32;99106.29;;;20.07;75.74
62436;BME280;48480;50.252;18.848;2023-06-24T08:17:16;99108.10;;;20.08;75.06
62436;BME280;48480;50.252;18.848;2023-06-24T08:20:01;99112.21;;;20.12;75.03
62436;BME280;48480;50.252;18.848;2023-06-24T08:22:45;99109.75;;;20.23;74.98
62436;BME280;48480;50.252;18.848;2023-06-24T08:25:29;99107.27;;;20.28;74.58
62436;BME280;48480;50.252;18.848;2023-06-24T08:28:14;99110.05;;;20.32;73.92
62436;BME280;48480;50.252;18.848;2023-06-24T08:30:58;99113.98;;;20.29;73.97
62436;BME280;48480;50.252;18.848;2023-06-24T08:33:46;99122.60;;;20.29;73.92
62436;BME280;48480;50.252;18.848;2023-06-24T08:36:30;99130.13;;;20.27;73.74
62436;BME280;48480;50.252;18.848;2023-06-24T08:39:15;99135.56;;;20.31;74.05
62436;BME280;48480;50.252;18.848;2023-06-24T08:41:59;99138.07;;;20.41;73.71
62436;BME280;48480;50.252;18.848;2023-06-24T08:44:42;99144.56;;;20.43;72.61
62436;BME280;48480;50.252;18.848;2023-06-24T08:47:28;99144.27;;;20.39;72.00
62436;BME280;48480;50.252;18.848;2023-06-24T08:50:15;99146.29;;;20.39;71.80
62436;BME280;48480;50.252;18.848;2023-06-24T08:53:03;99146.40;;;20.36;71.61
62436;BME280;48480;50.252;18.848;2023-06-24T08:55:53;99150.90;;;20.40;71.80
62436;BME280;48480;50.252;18.848;2023-06-24T08:58:37;99159.22;;;20.49;71.31
62436;BME280;48480;50.252;18.848;2023-06-24T09:01:22;99158.07;;;20.54;70.86
62436;BME280;48480;50.252;18.848;2023-06-24T09:04:06;99156.80;;;20.62;70.96
62436;BME280;48480;50.252;18.848;2023-06-24T09:06:50;99160.04;;;20.70;70.87
62436;BME280;48480;50.252;18.848;2023-06-24T09:09:43;99161.77;;;20.77;70.23
62436;BME280;48480;50.252;18.848;2023-06-24T09:12:31;99164.04;;;20.82;69.62
62436;BME280;48480;50.252;18.848;2023-06-24T09:15:19;99162.91;;;20.90;69.26
62436;BME280;48480;50.252;18.848;2023-06-24T09:18:04;99164.02;;;21.02;69.16
62436;BME280;48480;50.252;18.848;2023-06-24T09:20:49;99167.36;;;21.13;69.22
62436;BME280;48480;50.252;18.848;2023-06-24T09:23:36;99174.16;;;21.20;68.96
62436;BME280;48480;50.252;18.848;2023-06-24T09:26:25;99178.13;;;21.25;68.60
62436;BME280;48480;50.252;18.848;2023-06-24T09:29:12;99183.97;;;21.30;68.26
62436;BME280;48480;50.252;18.848;2023-06-24T09:31:56;99187.39;;;21.24;67.70
62436;BME280;48480;50.252;18.848;2023-06-24T09:34:43;99188.86;;;21.18;67.51
62436;BME280;48480;50.252;18.848;2023-06-24T09:37:27;99187.95;;;21.15;67.43
62436;BME280;48480;50.252;18.848;2023-06-24T09:40:14;99189.52;;;21.10;67.46
62436;BME280;48480;50.252;18.848;2023-06-24T09:42:58;99189.07;;;21.06;67.69
62436;BME280;48480;50.252;18.848;2023-06-24T09:45:48;99189.01;;;21.11;68.06
62436;BME280;48480;50.252;18.848;2023-06-24T09:48:33;99191.77;;;21.18;67.61
62436;BME280;48480;50.252;18.848;2023-06-24T09:51:17;99197.15;;;21.20;67.42
62436;BME280;48480;50.252;18.848;2023-06-24T09:54:04;99199.58;;;21.15;67.36
62436;BME280;48480;50.252;18.848;2023-06-24T09:56:49;99204.70;;;21.13;67.67
62436;BME280;48480;50.252;18.848;2023-06-24T09:59:34;99205.89;;;21.15;67.45
62436;BME280;48480;50.252;18.848;2023-06-24T10:02:18;99206.73;;;21.14;67.20
62436;BME280;48480;50.252;18.848;2023-06-24T10:05:03;99202.42;;;21.06;66.89
62436;BME280;48480;50.252;18.848;2023-06-24T10:07:48;99202.34;;;21.07;66.87
62436;BME280;48480;50.252;18.848;2023-06-24T10:10:33;99212.66;;;21.14;66.75
62436;BME280;48480;50.252;18.848;2023-06-24T10:13:17;99214.89;;;21.18;66.76
62436;BME280;48480;50.252;18.848;2023-06-24T10:16:02;99216.70;;;21.14;66.44
62436;BME280;48480;50.252;18.848;2023-06-24T10:18:46;99216.89;;;21.10;66.18
62436;BME280;48480;50.252;18.848;2023-06-24T10:21:51;99219.68;;;21.09;66.14
62436;BME280;48480;50.252;18.848;2023-06-24T10:24:36;99219.96;;;21.13;66.11
62436;BME280;48480;50.252;18.848;2023-06-24T10:27:23;99223.73;;;21.19;65.39
62436;BME280;48480;50.252;18.848;2023-06-24T10:30:07;99224.34;;;21.25;65.05
62436;BME280;48480;50.252;18.848;2023-06-24T10:32:52;99222.61;;;21.29;64.72
62436;BME280;48480;50.252;18.848;2023-06-24T10:35:41;99224.36;;;21.25;64.33
62436;BME280;48480;50.252;18.848;2023-06-24T10:38:27;99224.02;;;21.24;64.16
62436;BME280;48480;50.252;18.848;2023-06-24T10:41:17;99221.20;;;21.23;63.51
62436;BME280;48480;50.252;18.848;2023-06-24T10:44:14;99216.59;;;21.16;63.42
62436;BME280;48480;50.252;18.848;2023-06-24T10:47:01;99212.87;;;21.12;63.76
62436;BME280;48480;50.252;18.848;2023-06-24T10:49:45;99222.25;;;21.21;64.24
62436;BME280;48480;50.252;18.848;2023-06-24T10:52:29;99223.05;;;21.28;64.15
62436;BME280;48480;50.252;18.848;2023-06-24T10:55:18;99227.95;;;21.32;63.80
62436;BME280;48480;50.252;18.848;2023-06-24T10:58:09;99231.48;;;21.33;63.46
62436;BME280;48480;50.252;18.848;2023-06-24T11:01:06;99231.48;;;21.33;63.75
62436;BME280;48480;50.252;18.848;2023-06-24T11:03:50;99235.41;;;21.35;63.60
62436;BME280;48480;50.252;18.848;2023-06-24T11:06:34;99235.91;;;21.33;63.37
62436;BME280;48480;50.252;18.848;2023-06-24T11:09:18;99239.31;;;21.25;63.17
62436;BME280;48480;50.252;18.848;2023-06-24T11:12:03;99238.85;;;21.10;63.17
62436;BME280;48480;50.252;18.848;2023-06-24T11:14:47;99231.48;;;20.91;63.29
62436;BME280;48480;50.252;18.848;2023-06-24T11:17:33;99238.27;;;20.82;63.48
62436;BME280;48480;50.252;18.848;2023-06-24T11:20:17;99240.88;;;20.70;64.00
62436;BME280;48480;50.252;18.848;2023-06-24T11:23:01;99240.61;;;20.64;64.27
62436;BME280;48480;50.252;18.848;2023-06-24T11:25:45;99241.92;;;20.55;64.34
62436;BME280;48480;50.252;18.848;2023-06-24T11:28:31;99237.52;;;20.49;64.49
62436;BME280;48480;50.252;18.848;2023-06-24T11:31:16;99239.59;;;20.42;64.46
62436;BME280;48480;50.252;18.848;2023-06-24T11:33:59;99238.66;;;20.37;64.83
62436;BME280;48480;50.252;18.848;2023-06-24T11:36:44;99238.94;;;20.35;64.96
62436;BME280;48480;50.252;18.848;2023-06-24T11:39:28;99238.09;;;20.32;64.77
62436;BME280;48480;50.252;18.848;2023-06-24T11:42:13;99237.15;;;20.31;64.85
62436;BME280;48480;50.252;18.848;2023-06-24T11:45:05;99233.30;;;20.34;64.91
62436;BME280;48480;50.252;18.848;2023-06-24T11:47:49;99236.80;;;20.33;64.94
62436;BME280;48480;50.252;18.848;2023-06-24T11:50:35;99235.25;;;20.34;65.45
62436;BME280;48480;50.252;18.848;2023-06-24T11:53:29;99232.17;;;20.41;65.43
62436;BME280;48480;50.252;18.848;2023-06-24T11:56:15;99238.45;;;20.43;64.86
62436;BME280;48480;50.252;18.848;2023-06-24T11:58:59;99236.45;;;20.44;64.78
62436;BME280;48480;50.252;18.848;2023-06-24T12:01:44;99227.45;;;20.42;64.76
62436;BME280;48480;50.252;18.848;2023-06-24T12:04:29;99237.01;;;20.54;64.58
62436;BME280;48480;50.252;18.848;2023-06-24T12:07:14;99236.76;;;20.58;64.20
62436;BME280;48480;50.252;18.848;2023-06-24T12:09:59;99237.71;;;20.59;63.58
62436;BME280;48480;50.252;18.848;2023-06-24T12:12:43;99241.30;;;20.63;63.79
62436;BME280;48480;50.252;18.848;2023-06-24T12:15:28;99238.80;;;20.71;63.64
62436;BME280;48480;50.252;18.848;2023-06-24T12:18:12;99236.17;;;20.73;62.88
62436;BME280;48480;50.252;18.848;2023-06-24T12:20:57;99233.88;;;20.69;62.76
62436;BME280;48480;50.252;18.848;2023-06-24T12:23:41;99235.09;;;20.68;62.64
62436;BME280;48480;50.252;18.848;2023-06-24T12:26:25;99237.52;;;20.69;62.75
62436;BME280;48480;50.252;18.848;2023-06-24T12:29:09;99238.01;;;20.70;62.50
62436;BME280;48480;50.252;18.848;2023-06-24T12:31:53;99238.13;;;20.68;62.20
62436;BME280;48480;50.252;18.848;2023-06-24T12:34:37;99240.55;;;20.68;62.52
62436;BME280;48480;50.252;18.848;2023-06-24T12:37:21;99240.21;;;20.72;62.49
62436;BME280;48480;50.252;18.848;2023-06-24T12:40:07;99241.01;;;20.72;62.16
62436;BME280;48480;50.252;18.848;2023-06-24T12:42:51;99242.94;;;20.72;61.92
62436;BME280;48480;50.252;18.848;2023-06-24T12:45:35;99244.39;;;20.70;61.94
62436;BME280;48480;50.252;18.848;2023-06-24T12:48:19;99249.44;;;20.74;62.04
62436;BME280;48480;50.252;18.848;2023-06-24T12:51:03;99252.33;;;20.74;61.65
62436;BME280;48480;50.252;18.848;2023-06-24T12:53:47;99249.95;;;20.67;61.39
62436;BME280;48480;50.252;18.848;2023-06-24T12:56:32;99249.40;;;20.59;61.67
62436;BME280;48480;50.252;18.848;2023-06-24T12:59:16;99250.86;;;20.53;61.49
62436;BME280;48480;50.252;18.848;2023-06-24T13:02:00;99254.40;;;20.47;60.87
62436;BME280;48480;50.252;18.848;2023-06-24T13:04:44;99261.44;;;20.40;61.05
62436;BME280;48480;50.252;18.848;2023-06-24T13:07:29;99262.45;;;20.40;60.99
62436;BME280;48480;50.252;18.848;2023-06-24T13:10:13;99261.58;;;20.35;61.05
62436;BME280;48480;50.252;18.848;2023-06-24T13:12:58;99259.90;;;20.37;61.32
62436;BME280;48480;50.252;18.848;2023-06-24T13:15:41;99260.36;;;20.41;61.28
62436;BME280;48480;50.252;18.848;2023-06-24T13:18:25;99257.23;;;20.44;61.26
62436;BME280;48480;50.252;18.848;2023-06-24T13:21:09;99257.38;;;20.39;60.61
62436;BME280;48480;50.252;18.848;2023-06-24T13:23:54;99264.23;;;20.35;60.49
62436;BME280;48480;50.252;18.848;2023-06-24T13:26:39;99265.08;;;20.31;60.49
62436;BME280;48480;50.252;18.848;2023-06-24T13:29:23;99261.23;;;20.29;60.32
62436;BME280;48480;50.252;18.848;2023-06-24T13:32:08;99262.36;;;20.27;60.05
62436;BME280;48480;50.252;18.848;2023-06-24T13:34:54;99260.89;;;20.24;59.83
62436;BME280;48480;50.252;18.848;2023-06-24T13:37:39;99261.54;;;20.20;59.32
62436;BME280;48480;50.252;18.848;2023-06-24T13:40:23;99261.27;;;20.14;58.36
62436;BME280;48480;50.252;18.848;2023-06-24T13:43:07;99255.40;;;20.09;58.41
62436;BME280;48480;50.252;18.848;2023-06-24T13:50:08;99258.74;;;19.96;57.46
62436;BME280;48480;50.252;18.848;2023-06-24T13:52:53;99256.65;;;19.81;57.16
62436;BME280;48480;50.252;18.848;2023-06-24T13:55:37;99253.73;;;19.66;57.50
62436;BME280;48480;50.252;18.848;2023-06-24T13:58:21;99253.56;;;19.55;57.95
62436;BME280;48480;50.252;18.848;2023-06-24T14:01:05;99249.86;;;19.53;58.52
62436;BME280;48480;50.252;18.848;2023-06-24T14:03:49;99250.17;;;19.52;58.78
62436;BME280;48480;50.252;18.848;2023-06-24T14:06:33;99251.03;;;19.52;58.96
62436;BME280;48480;50.252;18.848;2023-06-24T14:09:17;99250.45;;;19.54;58.48
62436;BME280;48480;50.252;18.848;2023-06-24T14:12:01;99245.96;;;19.55;58.91
62436;BME280;48480;50.252;18.848;2023-06-24T14:14:46;99247.67;;;19.67;59.37
62436;BME280;48480;50.252;18.848;2023-06-24T14:17:30;99250.02;;;19.81;59.22
62436;BME280;48480;50.252;18.848;2023-06-24T14:20:14;99250.15;;;19.95;58.53
62436;BME280;48480;50.252;18.848;2023-06-24T14:22:57;99252.77;;;19.98;57.89
62436;BME280;48480;50.252;18.848;2023-06-24T14:25:41;99255.33;;;20.02;57.80
62436;BME280;48480;50.252;18.848;2023-06-24T14:28:26;99260.41;;;20.03;57.09
62436;BME280;48480;50.252;18.848;2023-06-24T14:31:10;99260.06;;;20.01;56.78
62436;BME280;48480;50.252;18.848;2023-06-24T14:33:54;99259.21;;;19.97;56.53
62436;BME280;48480;50.252;18.848;2023-06-24T14:36:38;99257.75;;;19.93;56.54